Time;durP1;ratioP1;P1;durP2;ratioP2;P2;SDS_P1;SDS_P2;PMS_P1;PMS_P2;Temp;Humidity;BMP_temperature;BMP_pressure;BME280_temperature;BME280_humidity;BME280_pressure;Samples;Min_cycle;Max_cycle;Signal;HPM_P1;HPM_P2
2021/01/11 00:02:13;;;;;;;51.33;26.03;;;;;;;;;;4988512;28;20018;-85
2021/01/11 00:04:39;;;;;;;47.73;25.97;;;;;;;;;;4989234;28;20050;-84
2021/01/11 00:07:05;;;;;;;51.60;26.37;;;;;;;;;;5005712;28;20030;-85
2021/01/11 00:09:30;;;;;;;52.20;26.50;;;;;;;;;;5004996;28;20541;-84
2021/01/11 00:11:57;;;;;;;50.40;25.00;;;;;;;;;;5005302;28;20031;-84
2021/01/11 00:14:22;;;;;;;55.13;28.37;;;;;;;;;;5009784;28;20030;-85
2021/01/11 00:16:47;;;;;;;47.70;24.70;;;;;;;;;;5015738;28;20093;-85
2021/01/11 00:19:13;;;;;;;51.23;27.83;;;;;;;;;;4989003;28;20026;-84
2021/01/11 00:21:38;;;;;;;51.93;25.80;;;;;;;;;;5005174;28;20022;-85
2021/01/11 00:24:03;;;;;;;49.00;24.87;;;;;;;;;;4988279;28;20473;-84
2021/01/11 00:26:28;;;;;;;50.37;24.90;;;;;;;;;;4999317;28;20022;-84
2021/01/11 00:28:53;;;;;;;46.83;23.97;;;;;;;;;;4985912;28;20104;-85
2021/01/11 00:31:23;;;;;;;47.03;25.67;;;;;;;;;;5000872;28;20023;-85
2021/01/11 00:33:48;;;;;;;50.47;25.23;;;;;;;;;;4986166;28;20030;-85
2021/01/11 00:36:13;;;;;;;49.63;24.60;;;;;;;;;;4990542;28;20014;-85
2021/01/11 00:38:38;;;;;;;48.87;25.60;;;;;;;;;;5006996;28;20023;-85
2021/01/11 00:41:03;;;;;;;50.53;24.70;;;;;;;;;;5006622;28;20381;-85
2021/01/11 00:43:29;;;;;;;48.87;23.63;;;;;;;;;;4991939;28;20523;-85
2021/01/11 00:45:54;;;;;;;50.93;26.73;;;;;;;;;;5007168;28;20019;-84
2021/01/11 00:48:19;;;;;;;46.27;24.27;;;;;;;;;;4991678;28;20093;-84
2021/01/11 00:50:44;;;;;;;47.30;24.20;;;;;;;;;;4991561;28;20445;-85
2021/01/11 00:53:09;;;;;;;48.53;23.87;;;;;;;;;;4991364;28;20121;-84
2021/01/11 00:55:35;;;;;;;50.67;23.23;;;;;;;;;;4990025;28;20025;-85
2021/01/11 00:58:00;;;;;;;44.07;22.33;;;;;;;;;;5002937;28;20064;-85
2021/01/11 01:00:25;;;;;;;48.60;23.87;;;;;;;;;;4991885;28;20046;-85
2021/01/11 01:02:51;;;;;;;46.97;24.43;;;;;;;;;;4991548;28;20046;-85
2021/01/11 01:05:16;;;;;;;50.27;24.73;;;;;;;;;;4991547;28;20548;-84
2021/01/11 01:07:42;;;;;;;50.63;25.40;;;;;;;;;;5005996;28;20034;-85
2021/01/11 01:10:08;;;;;;;48.30;24.57;;;;;;;;;;5006337;28;20983;-84
2021/01/11 01:12:33;;;;;;;53.43;25.97;;;;;;;;;;5006403;28;20022;-85
2021/01/11 01:14:59;;;;;;;48.03;25.23;;;;;;;;;;4990261;28;20035;-85
2021/01/11 01:17:24;;;;;;;47.87;24.43;;;;;;;;;;5006451;28;20033;-84
2021/01/11 01:19:49;;;;;;;50.27;25.20;;;;;;;;;;5006715;28;20405;-85
2021/01/11 01:22:14;;;;;;;48.00;23.63;;;;;;;;;;5006365;28;20401;-84
2021/01/11 01:24:39;;;;;;;47.10;25.17;;;;;;;;;;5006256;28;20018;-84
2021/01/11 01:27:05;;;;;;;48.93;25.00;;;;;;;;;;4989668;28;20100;-84
2021/01/11 01:29:30;;;;;;;49.97;24.67;;;;;;;;;;4989636;28;20493;-85
2021/01/11 01:31:55;;;;;;;52.93;27.10;;;;;;;;;;5006451;28;20429;-84
2021/01/11 01:34:20;;;;;;;52.73;26.50;;;;;;;;;;5007414;28;20050;-84
2021/01/11 01:36:45;;;;;;;50.87;26.23;;;;;;;;;;5010427;28;20036;-84
2021/01/11 01:39:11;;;;;;;54.67;26.27;;;;;;;;;;4993935;28;20077;-84
2021/01/11 01:41:36;;;;;;;53.23;26.17;;;;;;;;;;4993896;28;20018;-84
2021/01/11 01:44:01;;;;;;;52.83;26.27;;;;;;;;;;5010482;28;20332;-84
2021/01/11 01:46:28;;;;;;;57.47;25.97;;;;;;;;;;4994104;28;20033;-84
2021/01/11 01:48:53;;;;;;;53.57;25.20;;;;;;;;;;4986212;28;20027;-84
2021/01/11 01:51:18;;;;;;;53.93;25.87;;;;;;;;;;4990216;28;20029;-84
2021/01/11 01:53:44;;;;;;;51.83;25.83;;;;;;;;;;4993428;28;20037;-84
2021/01/11 01:56:10;;;;;;;49.83;24.57;;;;;;;;;;4993848;28;20088;-84
2021/01/11 01:58:35;;;;;;;47.63;22.90;;;;;;;;;;4994970;28;20066;-84
2021/01/11 02:01:00;;;;;;;49.30;22.97;;;;;;;;;;4993444;28;20092;-84
2021/01/11 02:03:25;;;;;;;46.07;22.97;;;;;;;;;;4993353;28;20014;-84
2021/01/11 02:05:51;;;;;;;49.50;23.80;;;;;;;;;;4993040;28;20050;-84
2021/01/11 02:08:21;;;;;;;47.27;24.03;;;;;;;;;;4993199;28;20033;-84
2021/01/11 02:11:02;;;;;;;48.13;24.97;;;;;;;;;;4993527;28;20120;-84
2021/01/11 02:13:27;;;;;;;44.20;23.63;;;;;;;;;;4996905;28;20469;-84
2021/01/11 02:16:11;;;;;;;51.35;24.17;;;;;;;;;;4993487;28;20081;-84
2021/01/11 02:18:47;;;;;;;46.13;23.50;;;;;;;;;;4993403;28;20026;-84
2021/01/11 02:21:12;;;;;;;51.20;23.83;;;;;;;;;;4991429;28;20046;-84
2021/01/11 02:23:44;;;;;;;50.58;24.17;;;;;;;;;;4991669;28;20014;-84
2021/01/11 02:26:39;;;;;;;48.90;23.00;;;;;;;;;;4991223;28;20037;-84
2021/01/11 02:29:04;;;;;;;45.37;23.53;;;;;;;;;;4990472;28;20019;-84
2021/01/11 02:31:30;;;;;;;46.80;22.73;;;;;;;;;;4994137;28;20057;-84
2021/01/11 02:33:58;;;;;;;45.50;22.30;;;;;;;;;;4992707;28;20072;-84
2021/01/11 02:36:24;;;;;;;44.87;22.50;;;;;;;;;;4994579;28;20124;-84
2021/01/11 02:38:50;;;;;;;39.23;20.20;;;;;;;;;;4992235;28;20462;-84
2021/01/11 02:41:15;;;;;;;44.07;20.50;;;;;;;;;;4992521;28;20026;-84
2021/01/11 02:43:40;;;;;;;39.60;20.73;;;;;;;;;;4993467;28;20032;-84
2021/01/11 02:46:05;;;;;;;41.50;20.07;;;;;;;;;;5008025;28;20382;-83
2021/01/11 02:48:41;;;;;;;39.30;20.40;;;;;;;;;;4992576;28;20022;-84
2021/01/11 02:51:16;;;;;;;39.73;20.77;;;;;;;;;;4992674;28;20060;-84
2021/01/11 02:53:54;;;;;;;41.33;21.33;;;;;;;;;;4992563;28;20052;-84
2021/01/11 02:56:21;;;;;;;38.93;19.70;;;;;;;;;;4992764;28;20027;-84
2021/01/11 02:58:46;;;;;;;41.27;19.70;;;;;;;;;;4993566;28;20022;-84
2021/01/11 03:01:14;;;;;;;38.30;18.83;;;;;;;;;;4992535;28;20091;-83
2021/01/11 03:03:41;;;;;;;41.30;18.93;;;;;;;;;;4991875;28;20044;-84
2021/01/11 03:06:10;;;;;;;36.97;18.77;;;;;;;;;;5008369;28;20053;-84
2021/01/11 03:08:35;;;;;;;41.40;19.40;;;;;;;;;;4993338;28;20509;-84
2021/01/11 03:11:01;;;;;;;38.97;20.27;;;;;;;;;;5008636;28;20050;-83
2021/01/11 03:13:26;;;;;;;38.47;18.67;;;;;;;;;;4993626;28;20022;-84
2021/01/11 03:15:51;;;;;;;37.60;20.30;;;;;;;;;;4992392;28;20030;-84
2021/01/11 03:18:16;;;;;;;37.90;20.60;;;;;;;;;;4992407;28;20045;-84
2021/01/11 03:20:41;;;;;;;36.93;20.17;;;;;;;;;;4992151;28;20101;-84
2021/01/11 03:23:07;;;;;;;36.20;19.17;;;;;;;;;;4992890;28;20373;-84
2021/01/11 03:25:32;;;;;;;39.63;20.23;;;;;;;;;;4993416;28;20076;-83
2021/01/11 03:27:57;;;;;;;37.47;19.53;;;;;;;;;;5008405;28;20418;-84
2021/01/11 03:30:22;;;;;;;39.53;21.17;;;;;;;;;;4991894;28;20473;-83
2021/01/11 03:32:48;;;;;;;37.07;19.70;;;;;;;;;;5007771;28;20019;-84
2021/01/11 03:35:13;;;;;;;36.90;20.13;;;;;;;;;;4991471;28;20022;-84
2021/01/11 03:37:38;;;;;;;36.83;18.70;;;;;;;;;;5004527;28;20446;-84
2021/01/11 03:40:04;;;;;;;34.77;19.20;;;;;;;;;;5007975;28;20049;-84
2021/01/11 03:42:29;;;;;;;36.63;19.37;;;;;;;;;;4991962;28;20018;-84
2021/01/11 03:44:54;;;;;;;37.83;19.97;;;;;;;;;;4991095;28;20030;-84
2021/01/11 03:47:20;;;;;;;39.10;19.70;;;;;;;;;;4991333;28;20093;-84
2021/01/11 03:49:45;;;;;;;37.10;20.47;;;;;;;;;;4991462;28;20088;-83
2021/01/11 03:52:10;;;;;;;39.07;21.63;;;;;;;;;;4991364;28;20022;-84
2021/01/11 03:54:36;;;;;;;40.73;20.07;;;;;;;;;;4991542;28;20041;-84
2021/01/11 03:57:01;;;;;;;40.10;18.90;;;;;;;;;;4992512;28;20080;-83
2021/01/11 03:59:26;;;;;;;39.23;20.27;;;;;;;;;;4991482;28;20026;-84
2021/01/11 04:01:52;;;;;;;38.03;19.57;;;;;;;;;;4992991;28;20030;-84
2021/01/11 04:04:17;;;;;;;34.97;18.50;;;;;;;;;;4992214;28;20124;-84
2021/01/11 04:06:43;;;;;;;36.90;19.13;;;;;;;;;;4990916;28;20026;-84
2021/01/11 04:09:09;;;;;;;39.97;20.23;;;;;;;;;;5007256;28;20037;-84
2021/01/11 04:11:34;;;;;;;40.97;21.73;;;;;;;;;;4991327;28;20151;-84
2021/01/11 04:13:59;;;;;;;38.43;19.17;;;;;;;;;;4990965;28;20121;-84
2021/01/11 04:16:24;;;;;;;40.17;20.30;;;;;;;;;;4991156;28;20060;-84
2021/01/11 04:18:50;;;;;;;41.90;21.77;;;;;;;;;;4990936;28;20101;-83
2021/01/11 04:21:15;;;;;;;37.70;19.10;;;;;;;;;;4991461;28;20014;-84
2021/01/11 04:23:41;;;;;;;36.80;18.63;;;;;;;;;;5007119;28;20026;-84
2021/01/11 04:26:06;;;;;;;37.40;19.50;;;;;;;;;;4990633;28;20029;-82
2021/01/11 04:28:32;;;;;;;37.40;18.37;;;;;;;;;;4991959;28;20061;-83
2021/01/11 04:30:57;;;;;;;40.17;20.83;;;;;;;;;;4992172;28;20029;-83
2021/01/11 04:33:22;;;;;;;36.07;20.10;;;;;;;;;;5006875;28;20014;-84
2021/01/11 04:35:47;;;;;;;39.63;19.03;;;;;;;;;;4990826;28;20524;-84
2021/01/11 04:38:12;;;;;;;39.57;18.70;;;;;;;;;;4991804;28;20041;-84
2021/01/11 04:40:38;;;;;;;40.17;19.67;;;;;;;;;;4990544;28;20069;-84
2021/01/11 04:43:04;;;;;;;34.90;17.97;;;;;;;;;;4990155;28;20022;-84
2021/01/11 04:45:29;;;;;;;33.90;18.20;;;;;;;;;;4990455;28;20022;-84
2021/01/11 04:47:55;;;;;;;34.93;18.80;;;;;;;;;;4989940;28;20023;-84
2021/01/11 04:50:21;;;;;;;36.13;18.37;;;;;;;;;;4990126;28;20377;-84
2021/01/11 04:52:46;;;;;;;37.20;20.13;;;;;;;;;;4991450;28;20096;-84
2021/01/11 04:55:12;;;;;;;37.67;18.77;;;;;;;;;;4991233;28;20026;-84
2021/01/11 04:57:48;;;;;;;35.50;19.30;;;;;;;;;;4991628;28;20061;-84
2021/01/11 05:00:16;;;;;;;38.13;18.30;;;;;;;;;;4990171;28;20026;-84
2021/01/11 05:02:42;;;;;;;34.63;18.93;;;;;;;;;;4989740;28;20022;-84
2021/01/11 05:05:08;;;;;;;34.83;18.87;;;;;;;;;;4991370;28;20034;-84
2021/01/11 05:07:33;;;;;;;35.90;18.87;;;;;;;;;;4991023;28;20076;-84
2021/01/11 05:09:59;;;;;;;35.27;18.80;;;;;;;;;;4989610;28;20029;-84
2021/01/11 05:12:25;;;;;;;35.03;18.00;;;;;;;;;;4989747;28;20482;-84
2021/01/11 05:15:10;;;;;;;34.40;17.77;;;;;;;;;;4989755;28;20022;-84
2021/01/11 05:17:43;;;;;;;36.33;17.87;;;;;;;;;;4989367;28;20112;-84
2021/01/11 05:20:08;;;;;;;;;;;;;;;;;;4991736;28;20362;-84
2021/01/11 05:22:33;;;;;;;30.10;16.67;;;;;;;;;;5005786;28;20253;-84
2021/01/11 05:25:11;;;;;;;35.93;17.17;;;;;;;;;;4991361;28;20038;-84
2021/01/11 05:27:36;;;;;;;34.07;17.60;;;;;;;;;;4990144;28;20468;-84
2021/01/11 05:30:01;;;;;;;34.43;17.47;;;;;;;;;;4989633;28;20152;-84
2021/01/11 05:32:26;;;;;;;41.03;19.90;;;;;;;;;;4989811;28;20106;-84
2021/01/11 05:34:53;;;;;;;33.60;16.77;;;;;;;;;;4989359;28;20389;-84
2021/01/11 05:37:37;;;;;;;29.63;17.07;;;;;;;;;;5006514;28;20417;-84
2021/01/11 05:40:12;;;;;;;28.60;16.83;;;;;;;;;;4989620;28;20633;-84
2021/01/11 05:42:38;;;;;;;30.40;16.27;;;;;;;;;;5006273;28;20473;-84
2021/01/11 05:45:10;;;;;;;33.77;17.63;;;;;;;;;;4989734;28;20525;-84
2021/01/11 05:47:51;;;;;;;29.73;16.17;;;;;;;;;;4989792;28;20344;-84
2021/01/11 05:50:16;;;;;;;28.30;16.93;;;;;;;;;;4989657;28;20022;-84
2021/01/11 05:52:42;;;;;;;27.27;16.00;;;;;;;;;;5006177;28;20109;-84
2021/01/11 05:55:18;;;;;;;27.93;16.27;;;;;;;;;;5003421;28;20550;-84
2021/01/11 05:57:52;;;;;;;27.47;16.13;;;;;;;;;;4989596;28;20038;-83
2021/01/11 06:00:17;;;;;;;25.70;14.30;;;;;;;;;;4989528;28;20022;-84
2021/01/11 06:02:43;;;;;;;26.33;15.00;;;;;;;;;;4989264;28;20019;-84
2021/01/11 06:05:08;;;;;;;26.00;16.53;;;;;;;;;;4989709;28;20092;-83
2021/01/11 06:07:33;;;;;;;24.63;15.37;;;;;;;;;;4990567;28;20045;-84
2021/01/11 06:09:59;;;;;;;26.30;15.67;;;;;;;;;;4990980;28;20441;-84
2021/01/11 06:12:24;;;;;;;23.13;13.53;;;;;;;;;;4989269;28;20025;-84
2021/01/11 06:14:51;;;;;;;22.00;13.93;;;;;;;;;;4989338;28;20014;-84
2021/01/11 06:17:16;;;;;;;25.20;14.63;;;;;;;;;;4988678;28;20030;-84
2021/01/11 06:19:41;;;;;;;32.03;18.93;;;;;;;;;;4990755;28;20374;-84
2021/01/11 06:22:07;;;;;;;30.33;17.40;;;;;;;;;;4992864;28;20425;-84
2021/01/11 06:24:35;;;;;;;24.40;14.00;;;;;;;;;;4992731;28;20036;-84
2021/01/11 06:27:14;;;;;;;26.77;15.50;;;;;;;;;;4992909;28;20029;-84
2021/01/11 06:29:45;;;;;;;27.10;14.80;;;;;;;;;;4992613;28;20034;-84
2021/01/11 06:32:17;;;;;;;26.27;14.27;;;;;;;;;;4992654;28;20121;-84
2021/01/11 06:34:43;;;;;;;26.27;14.43;;;;;;;;;;4993882;28;20031;-84
2021/01/11 06:37:18;;;;;;;25.47;14.23;;;;;;;;;;4992325;28;20114;-84
2021/01/11 06:39:44;;;;;;;26.67;16.20;;;;;;;;;;4992435;28;20018;-84
2021/01/11 06:42:10;;;;;;;26.27;14.20;;;;;;;;;;4992598;28;20072;-84
2021/01/11 06:44:37;;;;;;;24.00;13.87;;;;;;;;;;4992767;28;20018;-84
2021/01/11 06:47:02;;;;;;;26.13;14.20;;;;;;;;;;4992490;28;20034;-84
2021/01/11 06:49:29;;;;;;;24.47;15.43;;;;;;;;;;4992347;28;20327;-84
2021/01/11 06:52:02;;;;;;;26.20;14.17;;;;;;;;;;5005217;28;20033;-84
2021/01/11 06:54:41;;;;;;;22.93;14.23;;;;;;;;;;4992427;28;20022;-84
2021/01/11 06:57:07;;;;;;;25.90;15.27;;;;;;;;;;4993554;28;20011;-84
2021/01/11 06:59:35;;;;;;;25.30;14.57;;;;;;;;;;4993890;28;20015;-84
2021/01/11 07:02:16;;;;;;;27.83;16.10;;;;;;;;;;4991853;28;20041;-84
2021/01/11 07:04:41;;;;;;;26.27;16.00;;;;;;;;;;4995920;28;20033;-84
2021/01/11 07:07:07;;;;;;;25.73;15.73;;;;;;;;;;4992331;28;20018;-84
2021/01/11 07:09:32;;;;;;;25.93;14.87;;;;;;;;;;4992319;28;20019;-84
2021/01/11 07:12:04;;;;;;;25.37;14.40;;;;;;;;;;4992528;28;20101;-84
2021/01/11 07:14:48;;;;;;;27.23;15.77;;;;;;;;;;5008523;28;20027;-84
2021/01/11 07:17:32;;;;;;;27.30;16.53;;;;;;;;;;4993245;28;20031;-84
2021/01/11 07:19:57;;;;;;;25.87;15.87;;;;;;;;;;4992727;28;20034;-85
2021/01/11 07:22:22;;;;;;;27.43;16.17;;;;;;;;;;4991178;28;20642;-84
2021/01/11 07:24:48;;;;;;;30.00;17.10;;;;;;;;;;4992329;28;20018;-83
2021/01/11 07:27:14;;;;;;;29.40;17.57;;;;;;;;;;4992366;28;20085;-83
2021/01/11 07:29:39;;;;;;;30.17;17.40;;;;;;;;;;4992121;28;20034;-85
2021/01/11 07:32:05;;;;;;;34.83;18.53;;;;;;;;;;4991298;28;20470;-85
2021/01/11 07:34:30;;;;;;;34.80;18.50;;;;;;;;;;4993483;28;20117;-85
2021/01/11 07:36:56;;;;;;;34.37;18.83;;;;;;;;;;4996394;28;20018;-84
2021/01/11 07:39:28;;;;;;;34.10;18.83;;;;;;;;;;5017830;28;20029;-84
2021/01/11 07:41:54;;;;;;;37.42;19.20;;;;;;;;;;5007791;28;20105;-84
2021/01/11 07:44:21;;;;;;;36.40;19.30;;;;;;;;;;4992090;28;20396;-85
2021/01/11 07:46:57;;;;;;;37.20;20.20;;;;;;;;;;4993275;28;20022;-87
2021/01/11 07:49:23;;;;;;;40.30;22.73;;;;;;;;;;5014750;28;20022;-87
2021/01/11 07:51:49;;;;;;;36.97;20.67;;;;;;;;;;5010637;28;20018;-86
2021/01/11 07:54:18;;;;;;;35.20;19.07;;;;;;;;;;4991037;28;20128;-86
2021/01/11 07:56:44;;;;;;;36.77;19.33;;;;;;;;;;4989391;28;20025;-87
2021/01/11 07:59:09;;;;;;;33.17;18.47;;;;;;;;;;5008077;28;20023;-87
2021/01/11 08:01:37;;;;;;;34.50;19.00;;;;;;;;;;5008052;28;20023;-87
2021/01/11 08:04:02;;;;;;;32.60;19.10;;;;;;;;;;4991948;28;20081;-85
2021/01/11 08:06:27;;;;;;;35.47;20.07;;;;;;;;;;5004072;28;20397;-85
2021/01/11 08:08:55;;;;;;;36.87;19.33;;;;;;;;;;4984228;28;20023;-86
2021/01/11 08:11:21;;;;;;;34.47;19.57;;;;;;;;;;4985314;28;20381;-85
2021/01/11 08:13:46;;;;;;;35.03;17.27;;;;;;;;;;4999827;28;20037;-85
2021/01/11 08:16:12;;;;;;;37.27;20.60;;;;;;;;;;5001690;28;20037;-86
2021/01/11 08:18:38;;;;;;;33.27;19.17;;;;;;;;;;5002725;28;20030;-85
2021/01/11 08:21:07;;;;;;;36.50;18.13;;;;;;;;;;5006026;28;20054;-85
2021/01/11 08:23:33;;;;;;;31.70;17.67;;;;;;;;;;4988428;28;20442;-85
2021/01/11 08:25:59;;;;;;;32.87;17.73;;;;;;;;;;4988575;28;20092;-85
2021/01/11 08:28:24;;;;;;;32.70;18.37;;;;;;;;;;4990369;28;20014;-83
2021/01/11 08:30:50;;;;;;;33.73;17.90;;;;;;;;;;5005584;28;20458;-85
2021/01/11 08:33:15;;;;;;;30.87;17.40;;;;;;;;;;5004545;28;20014;-84
2021/01/11 08:35:41;;;;;;;31.33;16.00;;;;;;;;;;4991957;28;20029;-85
2021/01/11 08:38:09;;;;;;;32.73;18.13;;;;;;;;;;5004709;28;20165;-86
2021/01/11 08:40:34;;;;;;;32.20;17.60;;;;;;;;;;4989496;28;20021;-86
2021/01/11 08:43:13;;;;;;;35.73;18.20;;;;;;;;;;5000567;28;20037;-86
2021/01/11 08:45:41;;;;;;;32.60;18.37;;;;;;;;;;4980130;28;20480;-85
2021/01/11 08:48:08;;;;;;;30.27;16.77;;;;;;;;;;4991197;28;20018;-85
2021/01/11 08:50:34;;;;;;;33.93;16.37;;;;;;;;;;4991134;28;20014;-85
2021/01/11 08:53:16;;;;;;;34.07;16.43;;;;;;;;;;4990579;28;20030;-86
2021/01/11 08:56:11;;;;;;;30.45;17.23;;;;;;;;;;4986996;28;20019;-85
2021/01/11 08:58:37;;;;;;;33.57;16.87;;;;;;;;;;4987557;28;20026;-85
2021/01/11 09:01:15;;;;;;;31.00;17.47;;;;;;;;;;4980959;28;20101;-84
2021/01/11 09:03:45;;;;;;;31.60;17.60;;;;;;;;;;4983223;28;20026;-85
2021/01/11 09:06:10;;;;;;;32.23;17.90;;;;;;;;;;5004405;28;20469;-85
2021/01/11 09:08:35;;;;;;;32.50;17.40;;;;;;;;;;5002823;28;20022;-85
2021/01/11 09:11:10;;;;;;;32.80;18.10;;;;;;;;;;4989155;28;20030;-85
2021/01/11 09:13:35;;;;;;;40.67;19.53;;;;;;;;;;4990515;28;20027;-85
2021/01/11 09:16:10;;;;;;;34.50;18.00;;;;;;;;;;4988401;28;20474;-84
2021/01/11 09:18:35;;;;;;;33.90;18.33;;;;;;;;;;4990217;28;20022;-85
2021/01/11 09:21:00;;;;;;;33.90;18.20;;;;;;;;;;5001006;28;20363;-86
2021/01/11 09:23:25;;;;;;;32.57;17.97;;;;;;;;;;4993963;28;20073;-85
2021/01/11 09:25:51;;;;;;;37.57;18.53;;;;;;;;;;5002401;28;20029;-85
2021/01/11 09:28:17;;;;;;;34.50;16.90;;;;;;;;;;4998139;28;20033;-85
2021/01/11 09:30:43;;;;;;;33.37;17.77;;;;;;;;;;4984990;28;20045;-85
2021/01/11 09:33:09;;;;;;;35.03;19.03;;;;;;;;;;4990303;28;20105;-84
2021/01/11 09:35:34;;;;;;;30.60;16.73;;;;;;;;;;4989692;28;20030;-86
2021/01/11 09:37:59;;;;;;;33.80;18.17;;;;;;;;;;4999810;28;20102;-85
2021/01/11 09:40:24;;;;;;;31.30;17.23;;;;;;;;;;4988252;28;20014;-85
2021/01/11 09:42:50;;;;;;;34.87;17.70;;;;;;;;;;5007631;28;20477;-86
2021/01/11 09:45:16;;;;;;;31.00;17.63;;;;;;;;;;5003176;28;20014;-85
2021/01/11 09:47:43;;;;;;;31.67;17.57;;;;;;;;;;4980477;28;20077;-86
2021/01/11 09:50:10;;;;;;;36.07;19.70;;;;;;;;;;4989585;28;20465;-85
2021/01/11 09:52:35;;;;;;;33.40;18.97;;;;;;;;;;4990456;28;20023;-87
2021/01/11 09:55:01;;;;;;;30.30;17.83;;;;;;;;;;4987636;28;20026;-84
2021/01/11 09:57:27;;;;;;;28.67;17.07;;;;;;;;;;4992955;28;20010;-85
2021/01/11 09:59:52;;;;;;;25.13;13.07;;;;;;;;;;4997702;28;20034;-85
2021/01/11 10:02:17;;;;;;;32.43;17.20;;;;;;;;;;5007321;28;20089;-85
2021/01/11 10:04:43;;;;;;;27.43;15.50;;;;;;;;;;5011359;28;20381;-86
2021/01/11 10:07:08;;;;;;;31.87;16.37;;;;;;;;;;4997611;28;20049;-86
2021/01/11 10:09:34;;;;;;;30.47;16.90;;;;;;;;;;5004462;28;20543;-85
2021/01/11 10:12:00;;;;;;;28.53;16.87;;;;;;;;;;4980425;28;20069;-87
2021/01/11 10:14:26;;;;;;;26.87;16.70;;;;;;;;;;5002158;28;20049;-86
2021/01/11 10:16:51;;;;;;;26.20;16.43;;;;;;;;;;4994282;28;20076;-85
2021/01/11 10:19:20;;;;;;;24.97;15.03;;;;;;;;;;4994706;28;20161;-86
2021/01/11 10:21:46;;;;;;;25.63;14.60;;;;;;;;;;4982648;28;20045;-85
2021/01/11 10:24:11;;;;;;;24.90;13.93;;;;;;;;;;4993664;28;20485;-85
2021/01/11 10:26:40;;;;;;;25.80;15.13;;;;;;;;;;4993390;28;20018;-84
2021/01/11 10:29:05;;;;;;;22.30;15.17;;;;;;;;;;5008743;28;20026;-86
2021/01/11 10:31:30;;;;;;;27.07;15.20;;;;;;;;;;5000132;28;20489;-86
2021/01/11 10:33:56;;;;;;;25.27;14.40;;;;;;;;;;4984819;28;20014;-86
2021/01/11 10:36:21;;;;;;;24.27;13.80;;;;;;;;;;5009740;28;20057;-86
2021/01/11 10:38:46;;;;;;;26.57;14.37;;;;;;;;;;4992348;28;20403;-86
2021/01/11 10:41:16;;;;;;;24.57;13.63;;;;;;;;;;4992453;28;20129;-85
2021/01/11 10:43:41;;;;;;;24.43;13.20;;;;;;;;;;4991808;28;20525;-85
2021/01/11 10:46:09;;;;;;;23.33;12.63;;;;;;;;;;4991492;28;20098;-85
2021/01/11 10:48:34;;;;;;;29.63;12.50;;;;;;;;;;4993969;28;20014;-85
2021/01/11 10:51:02;;;;;;;22.67;13.33;;;;;;;;;;4992192;28;20100;-85
2021/01/11 10:53:28;;;;;;;23.03;13.67;;;;;;;;;;5002914;28;20041;-85
2021/01/11 10:55:53;;;;;;;25.43;15.07;;;;;;;;;;4991851;28;20042;-85
2021/01/11 10:58:19;;;;;;;21.57;12.57;;;;;;;;;;5009250;28;20049;-85
2021/01/11 11:00:44;;;;;;;23.17;14.90;;;;;;;;;;5004243;28;20212;-85
2021/01/11 11:03:09;;;;;;;23.53;14.57;;;;;;;;;;5004341;28;20022;-85
2021/01/11 11:05:35;;;;;;;22.23;13.23;;;;;;;;;;5007144;28;20488;-86
2021/01/11 11:08:00;;;;;;;23.83;12.33;;;;;;;;;;4983413;28;20030;-86
2021/01/11 11:10:25;;;;;;;24.07;13.90;;;;;;;;;;4994500;28;20046;-86
2021/01/11 11:12:51;;;;;;;22.43;13.13;;;;;;;;;;4992821;28;20430;-84
2021/01/11 11:15:16;;;;;;;19.40;12.43;;;;;;;;;;4993046;28;20052;-85
2021/01/11 11:17:41;;;;;;;25.53;13.33;;;;;;;;;;4990707;28;20161;-86
2021/01/11 11:20:07;;;;;;;22.33;13.73;;;;;;;;;;4991597;28;20771;-86
2021/01/11 11:22:32;;;;;;;21.43;12.47;;;;;;;;;;4989346;28;20033;-82
2021/01/11 11:25:05;;;;;;;19.77;11.50;;;;;;;;;;4991046;28;20033;-82
2021/01/11 11:27:30;;;;;;;24.70;15.27;;;;;;;;;;5007736;28;20152;-83
2021/01/11 11:29:55;;;;;;;24.63;14.03;;;;;;;;;;5008110;28;20480;-87
2021/01/11 11:32:21;;;;;;;23.20;13.23;;;;;;;;;;5008814;28;20014;-84
2021/01/11 11:34:46;;;;;;;22.77;14.07;;;;;;;;;;5003917;28;20098;-85
2021/01/11 11:37:13;;;;;;;22.80;14.83;;;;;;;;;;4984943;28;20072;-85
2021/01/11 11:39:38;;;;;;;19.93;13.53;;;;;;;;;;5001901;28;20030;-86
2021/01/11 11:42:03;;;;;;;20.93;13.70;;;;;;;;;;5005358;28;20014;-86
2021/01/11 11:44:28;;;;;;;21.17;13.47;;;;;;;;;;4992570;28;20171;-87
2021/01/11 11:46:54;;;;;;;22.20;13.87;;;;;;;;;;5004495;28;20033;-85
2021/01/11 11:49:19;;;;;;;26.13;14.40;;;;;;;;;;4990812;28;20201;-86
2021/01/11 11:51:45;;;;;;;28.23;14.13;;;;;;;;;;5008320;28;20430;-86
2021/01/11 11:54:11;;;;;;;23.47;14.40;;;;;;;;;;4992413;28;20022;-86
2021/01/11 11:56:40;;;;;;;26.13;15.07;;;;;;;;;;5008616;28;20537;-86
2021/01/11 11:59:06;;;;;;;22.57;14.43;;;;;;;;;;5008198;28;20029;-86
2021/01/11 12:01:35;;;;;;;23.90;12.73;;;;;;;;;;4993406;28;20019;-86
2021/01/11 12:04:00;;;;;;;24.67;13.30;;;;;;;;;;5007977;28;20032;-87
2021/01/11 12:06:25;;;;;;;24.27;13.37;;;;;;;;;;4992263;28;20381;-86
2021/01/11 12:08:50;;;;;;;22.27;11.83;;;;;;;;;;5008372;28;20034;-87
2021/01/11 12:11:16;;;;;;;23.67;12.63;;;;;;;;;;4991923;28;20018;-87
2021/01/11 12:13:41;;;;;;;21.13;12.33;;;;;;;;;;4991301;28;20057;-86
2021/01/11 12:16:08;;;;;;;24.17;13.67;;;;;;;;;;4991806;28;20037;-83
2021/01/11 12:18:33;;;;;;;25.03;13.70;;;;;;;;;;5004248;28;20078;-83
2021/01/11 12:20:58;;;;;;;24.63;13.50;;;;;;;;;;5005821;28;20030;-82
2021/01/11 12:23:24;;;;;;;26.87;12.57;;;;;;;;;;4990740;28;20418;-82
2021/01/11 12:25:49;;;;;;;31.60;14.83;;;;;;;;;;4991417;28;20022;-86
2021/01/11 12:28:14;;;;;;;22.07;13.23;;;;;;;;;;4986774;28;20033;-86
2021/01/11 12:30:39;;;;;;;23.60;13.10;;;;;;;;;;5002309;28;20430;-86
2021/01/11 12:33:04;;;;;;;24.80;13.73;;;;;;;;;;4987021;28;20034;-87
2021/01/11 12:35:30;;;;;;;24.10;12.73;;;;;;;;;;5006583;28;20053;-87
2021/01/11 12:37:55;;;;;;;23.07;13.27;;;;;;;;;;5007862;28;20052;-87
2021/01/11 12:40:21;;;;;;;24.97;13.40;;;;;;;;;;4989462;28;20114;-86
2021/01/11 12:42:46;;;;;;;27.43;13.20;;;;;;;;;;4987460;28;20113;-88
2021/01/11 12:45:12;;;;;;;29.20;13.93;;;;;;;;;;4993635;28;20461;-89
2021/01/11 12:47:37;;;;;;;24.43;12.83;;;;;;;;;;5007011;28;20027;-89
2021/01/11 12:50:03;;;;;;;25.90;13.07;;;;;;;;;;5001737;28;20033;-88
2021/01/11 12:52:28;;;;;;;26.13;14.07;;;;;;;;;;4997147;28;20337;-88
2021/01/11 12:54:53;;;;;;;24.37;12.70;;;;;;;;;;4991982;28;20028;-88
2021/01/11 12:57:18;;;;;;;26.80;13.87;;;;;;;;;;4988100;28;20022;-87
2021/01/11 12:59:44;;;;;;;22.53;13.17;;;;;;;;;;4983716;28;20045;-90
2021/01/11 13:02:10;;;;;;;24.40;12.73;;;;;;;;;;5008290;28;20049;-88
2021/01/11 13:04:35;;;;;;;24.60;13.30;;;;;;;;;;4997006;28;20034;-88
2021/01/11 13:07:00;;;;;;;24.03;14.37;;;;;;;;;;4992669;28;20033;-93
2021/01/11 13:09:26;;;;;;;23.83;14.23;;;;;;;;;;5012588;28;20015;-89
2021/01/11 13:11:52;;;;;;;23.43;13.17;;;;;;;;;;4992024;28;20021;-87
2021/01/11 13:14:19;;;;;;;26.10;14.57;;;;;;;;;;4990141;28;20042;-86
2021/01/11 13:16:44;;;;;;;24.90;15.23;;;;;;;;;;4992818;28;20050;-88
2021/01/11 13:19:11;;;;;;;23.57;13.40;;;;;;;;;;4997994;28;20021;-91
2021/01/11 13:21:36;;;;;;;25.50;14.67;;;;;;;;;;4986921;28;20030;-89
2021/01/11 13:24:02;;;;;;;27.27;13.93;;;;;;;;;;5007602;28;20087;-89
2021/01/11 13:26:31;;;;;;;32.70;13.70;;;;;;;;;;5004945;28;20026;-88
2021/01/11 13:29:00;;;;;;;27.77;14.47;;;;;;;;;;4981979;28;20046;-88
2021/01/11 13:31:26;;;;;;;27.77;14.70;;;;;;;;;;4994936;28;20027;-88
2021/01/11 13:33:52;;;;;;;26.70;14.20;;;;;;;;;;4986051;28;20042;-90
2021/01/11 13:36:21;;;;;;;24.37;14.93;;;;;;;;;;5001015;28;20434;-90
2021/01/11 13:38:46;;;;;;;33.17;15.33;;;;;;;;;;5003948;28;20045;-88
2021/01/11 13:41:12;;;;;;;26.07;14.47;;;;;;;;;;5012437;28;20023;-89
2021/01/11 13:43:37;;;;;;;26.90;14.40;;;;;;;;;;4984952;28;20113;-86
2021/01/11 13:46:02;;;;;;;27.10;13.93;;;;;;;;;;4981773;28;20480;-86
2021/01/11 13:48:27;;;;;;;26.67;14.80;;;;;;;;;;4986208;28;20027;-86
2021/01/11 13:50:52;;;;;;;27.77;15.07;;;;;;;;;;4988445;28;20073;-85
2021/01/11 13:53:18;;;;;;;26.43;14.97;;;;;;;;;;5003000;28;20118;-87
2021/01/11 13:55:43;;;;;;;26.60;14.47;;;;;;;;;;5005417;28;20101;-83
2021/01/11 13:58:08;;;;;;;26.70;14.93;;;;;;;;;;4989438;28;20050;-84
2021/01/11 14:00:33;;;;;;;27.77;15.43;;;;;;;;;;5018883;28;20031;-83
2021/01/11 14:02:58;;;;;;;26.33;14.27;;;;;;;;;;4992469;28;20449;-84
2021/01/11 14:05:24;;;;;;;29.43;15.80;;;;;;;;;;4978239;28;20509;-84
2021/01/11 14:07:49;;;;;;;26.73;13.97;;;;;;;;;;4987411;28;20062;-83
2021/01/11 14:10:15;;;;;;;26.77;15.20;;;;;;;;;;4985832;28;20030;-84
2021/01/11 14:12:40;;;;;;;25.07;14.57;;;;;;;;;;4990754;28;20044;-84
2021/01/11 14:15:06;;;;;;;29.00;16.07;;;;;;;;;;4990933;28;20022;-84
2021/01/11 14:17:31;;;;;;;33.73;15.97;;;;;;;;;;5007624;28;20022;-86